createdAt,value
2023-03-29T00:02:07.978Z,9.10
2023-03-29T00:04:35.404Z,10.90
2023-03-29T00:07:04.650Z,9.15
2023-03-29T00:09:33.553Z,9.48
2023-03-29T00:12:01.333Z,13.93
2023-03-29T00:14:31.118Z,9.13
2023-03-29T00:16:59.278Z,13.68
2023-03-29T00:19:26.907Z,13.13
2023-03-29T00:21:53.862Z,10.10
2023-03-29T00:24:21.527Z,8.73
2023-03-29T00:26:48.838Z,7.35
2023-03-29T00:29:16.796Z,6.53
2023-03-29T00:31:52.710Z,8.48
2023-03-29T00:34:30.922Z,9.95
2023-03-29T00:36:58.532Z,9.88
2023-03-29T00:39:28.134Z,8.40
2023-03-29T00:41:56.091Z,8.48
2023-03-29T00:45:00.232Z,7.72
2023-03-29T00:47:33.444Z,7.15
2023-03-29T00:50:29.852Z,13.75
2023-03-29T00:53:15.268Z,3.92
2023-03-29T00:55:52.736Z,9.95
2023-03-29T00:58:36.361Z,6.07
2023-03-29T01:01:11.173Z,7.35
2023-03-29T01:03:46.582Z,7.45
2023-03-29T01:06:18.448Z,11.13
2023-03-29T01:08:54.181Z,7.88
2023-03-29T01:11:27.524Z,15.23
2023-03-29T01:14:01.101Z,9.95
2023-03-29T01:16:30.518Z,7.15
2023-03-29T01:19:00.622Z,6.68
2023-03-29T01:21:51.752Z,8.63
2023-03-29T01:24:38.083Z,7.82
2023-03-29T01:27:36.230Z,8.18
2023-03-29T01:30:10.493Z,7.65
2023-03-29T01:32:50.621Z,7.93
2023-03-29T01:35:28.342Z,6.43
2023-03-29T01:38:09.684Z,5.90
2023-03-29T01:40:36.946Z,10.68
2023-03-29T01:43:19.375Z,7.03
2023-03-29T01:45:55.664Z,6.38
2023-03-29T01:48:28.454Z,13.63
2023-03-29T01:51:11.664Z,8.63
2023-03-29T01:53:47.794Z,7.13
2023-03-29T01:56:18.923Z,7.32
2023-03-29T01:58:50.323Z,8.07
2023-03-29T02:01:26.095Z,6.45
2023-03-29T02:03:57.054Z,7.93
2023-03-29T02:06:28.276Z,10.10
2023-03-29T02:08:58.451Z,12.40
2023-03-29T02:11:27.473Z,9.45
2023-03-29T02:13:54.371Z,9.07
2023-03-29T02:16:21.629Z,6.80
2023-03-29T02:18:50.559Z,11.13
2023-03-29T02:21:51.887Z,6.30
2023-03-29T02:24:21.855Z,6.93
2023-03-29T02:26:49.460Z,7.00
2023-03-29T02:29:17.272Z,9.90
2023-03-29T02:31:54.067Z,9.13
2023-03-29T02:34:28.292Z,6.28
2023-03-29T02:37:11.122Z,6.47
2023-03-29T02:39:42.144Z,9.23
2023-03-29T02:42:10.589Z,8.93
2023-03-29T02:44:42.070Z,5.88
2023-03-29T02:47:18.930Z,8.80
2023-03-29T02:49:46.041Z,6.30
2023-03-29T02:52:17.002Z,7.30
2023-03-29T02:54:48.234Z,8.40
2023-03-29T02:57:15.247Z,6.13
2023-03-29T02:59:44.773Z,6.95
2023-03-29T03:02:12.336Z,10.93
2023-03-29T03:04:40.087Z,7.80
2023-03-29T03:07:07.128Z,5.57
2023-03-29T03:09:34.473Z,5.93
2023-03-29T03:12:02.013Z,9.57
2023-03-29T03:14:29.551Z,6.45
2023-03-29T03:16:58.419Z,6.10
2023-03-29T03:19:25.300Z,8.00
2023-03-29T03:21:52.344Z,6.93
2023-03-29T03:24:21.955Z,8.98
2023-03-29T03:26:50.148Z,7.35
2023-03-29T03:29:19.368Z,6.90
2023-03-29T03:32:16.393Z,5.13
2023-03-29T03:35:11.850Z,9.73
2023-03-29T03:37:41.103Z,9.65
2023-03-29T03:40:11.856Z,7.63
2023-03-29T03:42:42.513Z,7.00
2023-03-29T03:45:10.716Z,7.18
2023-03-29T03:47:52.604Z,7.35
2023-03-29T03:50:24.894Z,9.93
2023-03-29T03:52:52.269Z,8.57
2023-03-29T03:55:21.766Z,7.45
2023-03-29T03:58:02.171Z,6.53
2023-03-29T04:00:29.863Z,5.10
2023-03-29T04:03:15.784Z,5.75
2023-03-29T04:05:45.334Z,7.90
2023-03-29T04:08:14.936Z,4.70
2023-03-29T04:11:08.445Z,6.32
2023-03-29T04:13:38.042Z,6.57
2023-03-29T04:16:28.686Z,7.22
2023-03-29T04:19:01.758Z,7.43
2023-03-29T04:21:29.164Z,10.60
2023-03-29T04:23:56.284Z,6.53
2023-03-29T04:26:23.602Z,7.35
2023-03-29T04:28:57.263Z,6.28
2023-03-29T04:31:38.687Z,7.50
2023-03-29T04:34:22.591Z,6.82
2023-03-29T04:36:52.416Z,7.32
2023-03-29T04:39:23.093Z,14.13
2023-03-29T04:41:54.980Z,7.18
2023-03-29T04:44:27.312Z,6.13
2023-03-29T04:46:57.452Z,9.02
2023-03-29T04:49:27.606Z,10.90
2023-03-29T04:51:55.154Z,5.07
2023-03-29T04:54:26.528Z,6.82
2023-03-29T04:57:19.086Z,6.35
2023-03-29T04:59:59.293Z,5.55
2023-03-29T05:02:55.301Z,5.40
2023-03-29T05:05:22.829Z,6.30
2023-03-29T05:07:51.319Z,9.43
2023-03-29T05:10:23.659Z,6.75
2023-03-29T05:12:54.315Z,11.73
2023-03-29T05:15:25.807Z,7.65
2023-03-29T05:17:53.668Z,7.82
2023-03-29T05:20:22.129Z,7.15
2023-03-29T05:22:49.559Z,4.88
2023-03-29T05:25:39.133Z,8.93
2023-03-29T05:28:06.671Z,7.18
2023-03-29T05:30:33.938Z,10.05
2023-03-29T05:33:09.289Z,6.75
2023-03-29T05:35:36.691Z,8.35
2023-03-29T05:38:07.181Z,6.05
2023-03-29T05:40:35.948Z,9.73
2023-03-29T05:43:29.140Z,10.85
2023-03-29T05:45:56.801Z,5.40
2023-03-29T05:48:24.541Z,6.80
2023-03-29T05:50:53.645Z,4.03
2023-03-29T05:53:23.821Z,6.97
2023-03-29T05:55:51.695Z,4.43
2023-03-29T05:58:21.705Z,3.80
2023-03-29T06:00:50.076Z,4.30
2023-03-29T06:03:47.583Z,9.73
2023-03-29T06:06:16.841Z,9.15
2023-03-29T06:08:44.818Z,6.10
2023-03-29T06:11:47.680Z,10.18
2023-03-29T06:14:15.892Z,8.77
2023-03-29T06:16:48.432Z,6.90
2023-03-29T06:19:16.314Z,3.60
2023-03-29T06:21:43.867Z,8.25
2023-03-29T06:24:14.388Z,7.70
2023-03-29T06:26:47.193Z,7.90
2023-03-29T06:29:14.863Z,6.30
2023-03-29T06:31:43.165Z,6.85
2023-03-29T06:34:22.740Z,5.57
2023-03-29T06:37:13.108Z,8.80
2023-03-29T06:39:41.249Z,20.35
2023-03-29T06:42:24.812Z,11.63
2023-03-29T06:45:29.482Z,16.20
2023-03-29T06:47:59.003Z,5.60
2023-03-29T06:50:26.387Z,6.30
2023-03-29T06:53:08.100Z,7.32
2023-03-29T06:55:36.352Z,8.00
2023-03-29T06:58:34.471Z,10.18
2023-03-29T07:01:08.475Z,7.05
2023-03-29T07:03:52.878Z,5.32
2023-03-29T07:06:24.493Z,5.22
2023-03-29T07:08:52.641Z,9.18
2023-03-29T07:11:50.475Z,4.18
2023-03-29T07:14:28.627Z,5.88
2023-03-29T07:16:58.704Z,5.45
2023-03-29T07:19:39.430Z,5.43
2023-03-29T07:22:19.767Z,6.97
2023-03-29T07:24:51.224Z,6.80
2023-03-29T07:27:18.266Z,5.53
2023-03-29T07:29:49.286Z,4.72
2023-03-29T07:32:17.944Z,4.88
2023-03-29T07:34:45.063Z,4.20
2023-03-29T07:37:25.269Z,7.18
2023-03-29T07:39:53.653Z,5.85
2023-03-29T07:42:46.955Z,7.13
2023-03-29T07:45:20.597Z,6.05
2023-03-29T07:48:04.038Z,7.70
2023-03-29T07:50:51.260Z,7.38
2023-03-29T07:53:23.269Z,7.95
2023-03-29T07:55:55.013Z,5.97
2023-03-29T07:58:41.531Z,5.65
2023-03-29T08:01:08.708Z,4.68
2023-03-29T08:03:58.846Z,6.30
2023-03-29T08:06:47.460Z,6.13
2023-03-29T08:09:14.541Z,5.25
2023-03-29T08:11:44.021Z,5.75
2023-03-29T08:14:23.925Z,4.28
2023-03-29T08:17:09.873Z,5.10
2023-03-29T08:19:51.444Z,7.80
2023-03-29T08:22:23.858Z,4.25
2023-03-29T08:25:29.855Z,7.43
2023-03-29T08:27:57.948Z,4.82
2023-03-29T08:30:42.232Z,7.60
2023-03-29T08:33:09.652Z,10.38
2023-03-29T08:35:37.001Z,5.10
2023-03-29T08:38:16.402Z,5.10
2023-03-29T08:40:43.622Z,7.47
2023-03-29T08:43:16.748Z,4.25
2023-03-29T08:46:19.225Z,8.32
2023-03-29T08:48:54.312Z,5.70
2023-03-29T08:54:02.403Z,5.55
2023-03-29T08:56:51.486Z,6.35
2023-03-29T08:59:28.868Z,10.23
2023-03-29T09:01:58.081Z,8.48
2023-03-29T09:04:36.661Z,13.48
2023-03-29T09:07:27.455Z,12.40
2023-03-29T09:09:55.993Z,8.52
2023-03-29T09:13:07.759Z,5.63
2023-03-29T09:15:46.752Z,7.97
2023-03-29T09:18:47.721Z,6.68
2023-03-29T09:21:59.333Z,8.02
2023-03-29T09:24:42.823Z,6.93
2023-03-29T09:27:32.497Z,7.10
2023-03-29T09:30:26.344Z,8.45
2023-03-29T09:33:42.928Z,6.15
2023-03-29T09:36:30.199Z,4.72
2023-03-29T09:38:57.646Z,10.95
2023-03-29T09:41:33.886Z,4.75
2023-03-29T09:44:10.863Z,5.03
2023-03-29T09:46:47.616Z,8.15
2023-03-29T09:49:21.981Z,5.45
2023-03-29T09:51:50.393Z,9.05
2023-03-29T09:54:19.594Z,7.32
2023-03-29T09:57:05.073Z,6.78
2023-03-29T09:59:32.574Z,5.78
2023-03-29T10:02:13.019Z,7.50
2023-03-29T10:04:42.587Z,6.00
2023-03-29T10:07:18.207Z,6.43
2023-03-29T10:09:51.137Z,6.22
2023-03-29T10:12:21.010Z,6.47
2023-03-29T10:14:54.291Z,9.82
2023-03-29T10:17:23.690Z,8.45
2023-03-29T10:19:52.831Z,10.57
2023-03-29T10:22:24.877Z,6.18
2023-03-29T10:24:53.483Z,7.15
2023-03-29T10:27:24.583Z,10.38
2023-03-29T10:29:52.228Z,7.38
2023-03-29T10:32:23.072Z,8.68
2023-03-29T10:34:52.229Z,6.55
2023-03-29T10:37:21.274Z,6.85
2023-03-29T10:39:49.240Z,8.30
2023-03-29T10:42:19.593Z,8.40
2023-03-29T10:44:55.530Z,7.05
2023-03-29T10:47:22.804Z,10.63
2023-03-29T10:49:58.983Z,9.07
2023-03-29T10:52:26.146Z,7.43
2023-03-29T10:54:55.214Z,7.88
2023-03-29T10:57:42.555Z,7.00
2023-03-29T11:00:57.742Z,7.57
2023-03-29T11:04:12.176Z,6.47
2023-03-29T11:07:13.324Z,8.90
2023-03-29T11:10:19.278Z,11.00
2023-03-29T11:13:10.451Z,7.13
2023-03-29T11:16:18.816Z,7.35
2023-03-29T11:18:55.389Z,8.50
2023-03-29T11:21:28.209Z,6.07
2023-03-29T11:24:16.888Z,6.10
2023-03-29T11:27:16.073Z,6.20
2023-03-29T11:30:12.320Z,6.30
2023-03-29T11:32:46.121Z,7.57
2023-03-29T11:35:59.570Z,6.45
2023-03-29T11:38:37.578Z,5.50
2023-03-29T11:41:28.330Z,6.38
2023-03-29T11:44:01.880Z,7.40
2023-03-29T11:46:33.910Z,5.75
2023-03-29T11:49:15.375Z,4.78
2023-03-29T11:51:52.150Z,5.35
2023-03-29T11:56:57.455Z,6.25
2023-03-29T11:59:30.349Z,5.65
2023-03-29T12:02:10.026Z,5.50
2023-03-29T12:04:48.557Z,7.55
2023-03-29T12:07:32.349Z,5.88
2023-03-29T12:10:07.219Z,5.50
2023-03-29T12:12:50.825Z,7.45
2023-03-29T12:15:22.915Z,5.78
2023-03-29T12:18:02.149Z,6.35
2023-03-29T12:20:34.214Z,5.38
2023-03-29T12:23:02.890Z,7.30
2023-03-29T12:25:52.939Z,4.70
2023-03-29T12:28:27.971Z,5.72
2023-03-29T12:31:25.676Z,7.78
2023-03-29T12:34:15.786Z,5.35
2023-03-29T12:37:12.990Z,6.63
2023-03-29T12:39:46.701Z,6.90
2023-03-29T12:42:32.467Z,6.00
2023-03-29T12:45:30.461Z,5.05
2023-03-29T12:47:58.135Z,9.07
2023-03-29T12:50:28.715Z,5.85
2023-03-29T12:53:15.136Z,5.15
2023-03-29T12:55:42.485Z,6.72
2023-03-29T12:58:36.747Z,5.88
2023-03-29T13:01:23.573Z,4.82
2023-03-29T13:03:52.221Z,7.28
2023-03-29T13:06:35.400Z,6.68
2023-03-29T13:09:23.062Z,8.10
2023-03-29T13:11:58.587Z,5.72
2023-03-29T13:14:30.364Z,3.08
2023-03-29T13:17:28.288Z,5.50
2023-03-29T13:23:15.592Z,6.93
2023-03-29T13:26:12.246Z,5.05
2023-03-29T13:29:09.726Z,11.18
2023-03-29T13:32:11.247Z,3.33
2023-03-29T13:34:47.683Z,4.47
2023-03-29T13:37:33.014Z,3.42
2023-03-29T13:40:00.309Z,4.13
2023-03-29T13:42:33.371Z,5.20
2023-03-29T13:45:09.349Z,6.90
2023-03-29T13:47:54.877Z,5.07
2023-03-29T13:50:36.369Z,6.07
2023-03-29T13:53:31.215Z,5.53
2023-03-29T13:56:02.045Z,5.95
2023-03-29T13:58:44.491Z,5.18
2023-03-29T14:01:36.605Z,5.28
2023-03-29T14:04:06.205Z,5.63
2023-03-29T14:06:37.327Z,6.93
2023-03-29T14:09:08.682Z,6.47
2023-03-29T14:11:36.709Z,4.68
2023-03-29T14:14:11.024Z,6.75
2023-03-29T14:16:40.744Z,5.50
2023-03-29T14:19:30.211Z,5.10
2023-03-29T14:21:59.399Z,4.10
2023-03-29T14:24:34.308Z,6.10
2023-03-29T14:27:04.413Z,4.70
2023-03-29T14:29:34.898Z,5.20
2023-03-29T14:32:12.814Z,6.78
2023-03-29T14:34:40.694Z,5.97
2023-03-29T14:37:11.575Z,6.68
2023-03-29T14:39:41.126Z,6.57
2023-03-29T14:42:16.351Z,8.52
2023-03-29T14:44:45.015Z,5.32
2023-03-29T14:47:19.123Z,6.97
2023-03-29T14:49:47.480Z,6.45
2023-03-29T14:52:15.364Z,9.77
2023-03-29T14:54:47.239Z,6.28
2023-03-29T14:57:18.689Z,5.72
2023-03-29T14:59:54.903Z,5.15
2023-03-29T15:02:54.900Z,5.53
2023-03-29T15:05:41.196Z,5.30
2023-03-29T15:08:14.962Z,11.17
2023-03-29T15:10:44.847Z,6.10
2023-03-29T15:13:19.834Z,8.93
2023-03-29T15:15:51.204Z,6.22
2023-03-29T15:18:21.324Z,8.65
2023-03-29T15:20:48.596Z,6.07
2023-03-29T15:23:15.506Z,7.10
2023-03-29T15:25:59.163Z,5.68
2023-03-29T15:28:32.768Z,6.43
2023-03-29T15:31:10.949Z,7.03
2023-03-29T15:33:43.187Z,7.80
2023-03-29T15:36:12.905Z,4.80
2023-03-29T15:38:44.669Z,5.25
2023-03-29T15:41:14.308Z,7.40
2023-03-29T15:43:42.576Z,9.48
2023-03-29T15:46:12.922Z,6.20
2023-03-29T15:48:40.976Z,5.63
2023-03-29T15:51:10.826Z,9.02
2023-03-29T15:53:38.107Z,10.02
2023-03-29T15:56:08.051Z,8.60
2023-03-29T15:58:37.110Z,8.55
2023-03-29T16:01:12.434Z,5.82
2023-03-29T16:03:40.290Z,9.15
2023-03-29T16:06:13.715Z,8.18
2023-03-29T16:08:42.041Z,7.13
2023-03-29T16:11:09.406Z,7.22
2023-03-29T16:13:36.537Z,8.35
2023-03-29T16:16:04.033Z,9.02
2023-03-29T16:18:31.142Z,7.85
2023-03-29T16:20:59.477Z,9.60
2023-03-29T16:23:26.643Z,8.18
2023-03-29T16:25:53.703Z,7.50
2023-03-29T16:28:20.900Z,9.80
2023-03-29T16:30:48.668Z,8.27
2023-03-29T16:33:16.221Z,9.25
2023-03-29T16:35:43.446Z,10.48
2023-03-29T16:38:10.469Z,10.88
2023-03-29T16:40:37.733Z,11.00
2023-03-29T16:43:04.703Z,10.40
2023-03-29T16:45:32.004Z,11.50
2023-03-29T16:47:59.045Z,9.88
2023-03-29T16:50:26.338Z,9.20
2023-03-29T16:52:53.336Z,8.93
2023-03-29T16:55:20.574Z,12.02
2023-03-29T16:57:48.944Z,10.32
2023-03-29T17:00:19.688Z,10.95
2023-03-29T17:02:49.772Z,13.65
2023-03-29T17:05:18.673Z,10.70
2023-03-29T17:07:47.038Z,9.95
2023-03-29T17:10:14.277Z,12.55
2023-03-29T17:12:41.597Z,14.13
2023-03-29T17:15:09.538Z,12.35
2023-03-29T17:17:37.913Z,11.68
2023-03-29T17:20:08.746Z,13.18
2023-03-29T17:22:36.178Z,13.63
2023-03-29T17:25:07.283Z,14.15
2023-03-29T17:27:35.955Z,10.90
2023-03-29T17:30:03.794Z,15.02
2023-03-29T17:32:31.491Z,13.07
2023-03-29T17:34:59.447Z,14.40
2023-03-29T17:37:27.909Z,13.07
2023-03-29T17:39:55.717Z,13.20
2023-03-29T17:42:22.597Z,12.73
2023-03-29T17:44:49.612Z,14.70
2023-03-29T17:47:16.713Z,17.48
2023-03-29T17:49:43.656Z,12.55
2023-03-29T17:52:10.889Z,14.75
2023-03-29T17:54:37.897Z,15.88
2023-03-29T17:57:05.110Z,18.80
2023-03-29T17:59:32.006Z,15.27
2023-03-29T18:02:00.173Z,22.38
2023-03-29T18:04:27.318Z,17.85
2023-03-29T18:06:57.340Z,15.10
2023-03-29T18:09:27.492Z,12.68
2023-03-29T18:11:55.641Z,15.68
2023-03-29T18:14:22.600Z,14.10
2023-03-29T18:16:49.578Z,13.73
2023-03-29T18:19:16.498Z,17.48
2023-03-29T18:21:43.522Z,16.08
2023-03-29T18:24:11.548Z,14.55
2023-03-29T18:26:38.539Z,13.45
2023-03-29T18:29:07.361Z,16.98
2023-03-29T18:31:36.333Z,17.83
2023-03-29T18:34:04.149Z,14.88
2023-03-29T18:36:34.109Z,15.60
2023-03-29T18:39:05.832Z,16.83
2023-03-29T18:41:37.420Z,16.75
2023-03-29T18:44:04.839Z,16.90
2023-03-29T18:46:35.214Z,14.23
2023-03-29T18:49:02.914Z,16.33
2023-03-29T18:51:31.149Z,17.67
2023-03-29T18:53:58.200Z,17.83
2023-03-29T18:56:25.756Z,17.40
2023-03-29T18:58:53.873Z,16.42
2023-03-29T19:01:21.328Z,17.35
2023-03-29T19:03:51.684Z,16.95
2023-03-29T19:10:14.094Z,17.08
2023-03-29T19:16:17.916Z,13.48
2023-03-29T19:18:52.104Z,14.82
2023-03-29T19:22:00.554Z,15.23
2023-03-29T19:25:20.168Z,12.25
2023-03-29T19:32:14.608Z,13.93
2023-03-29T19:34:43.307Z,13.52
2023-03-29T19:37:30.342Z,15.93
2023-03-29T19:39:57.393Z,13.88
2023-03-29T19:42:36.334Z,13.80
2023-03-29T19:45:12.737Z,13.63
2023-03-29T19:47:48.014Z,13.75
2023-03-29T19:50:19.242Z,15.10
2023-03-29T19:52:50.465Z,14.50
2023-03-29T19:55:18.683Z,13.65
2023-03-29T19:57:45.644Z,14.63
2023-03-29T20:00:14.938Z,13.85
2023-03-29T20:02:42.572Z,13.93
2023-03-29T20:05:09.961Z,11.90
2023-03-29T20:07:36.880Z,11.55
2023-03-29T20:10:04.148Z,14.23
2023-03-29T20:12:31.085Z,14.05
2023-03-29T20:14:58.067Z,13.32
2023-03-29T20:17:25.291Z,15.23
2023-03-29T20:19:54.041Z,14.15
2023-03-29T20:22:21.821Z,14.30
2023-03-29T20:24:48.777Z,12.63
2023-03-29T20:27:15.917Z,17.90
2023-03-29T20:29:43.273Z,13.50
2023-03-29T20:32:10.314Z,13.80
2023-03-29T20:34:37.581Z,12.70
2023-03-29T20:37:04.875Z,14.25
2023-03-29T20:39:31.929Z,14.63
2023-03-29T20:41:59.266Z,15.93
2023-03-29T20:44:28.366Z,15.30
2023-03-29T20:47:08.270Z,14.88
2023-03-29T20:49:39.363Z,14.85
2023-03-29T20:52:09.403Z,18.02
2023-03-29T20:54:37.316Z,16.27
2023-03-29T20:57:09.649Z,14.80
2023-03-29T20:59:38.179Z,24.60
2023-03-29T21:02:05.303Z,17.75
2023-03-29T21:04:32.455Z,17.13
2023-03-29T21:07:01.656Z,17.83
2023-03-29T21:09:31.154Z,17.05
2023-03-29T21:11:58.107Z,16.75
2023-03-29T21:14:26.755Z,18.92
2023-03-29T21:16:53.719Z,19.00
2023-03-29T21:19:21.282Z,17.85
2023-03-29T21:21:52.273Z,18.00
2023-03-29T21:24:19.440Z,19.63
2023-03-29T21:26:46.724Z,18.90
2023-03-29T21:29:14.081Z,19.60
2023-03-29T21:31:41.178Z,24.55
2023-03-29T21:34:08.216Z,22.80
2023-03-29T21:36:35.093Z,21.75
2023-03-29T21:39:02.129Z,20.45
2023-03-29T21:41:29.082Z,22.67
2023-03-29T21:43:56.165Z,21.45
2023-03-29T21:46:24.734Z,19.55
2023-03-29T21:48:52.221Z,24.17
2023-03-29T21:51:19.182Z,22.20
2023-03-29T21:53:46.160Z,20.08
2023-03-29T21:56:13.229Z,20.20
2023-03-29T21:58:40.162Z,22.05
2023-03-29T22:01:09.965Z,23.05
2023-03-29T22:03:38.194Z,23.40
2023-03-29T22:06:10.642Z,23.42
2023-03-29T22:08:40.572Z,21.13
2023-03-29T22:11:10.975Z,22.38
2023-03-29T22:13:38.057Z,20.30
2023-03-29T22:16:06.158Z,23.10
2023-03-29T22:18:46.880Z,22.77
2023-03-29T22:21:23.497Z,19.15
2023-03-29T22:26:21.559Z,20.48
2023-03-29T22:28:48.539Z,21.75
2023-03-29T22:31:18.837Z,22.10
2023-03-29T22:33:46.795Z,21.30
2023-03-29T22:36:16.751Z,20.98
2023-03-29T22:38:45.820Z,19.92
2023-03-29T22:41:13.708Z,18.92
2023-03-29T22:43:41.388Z,20.40
2023-03-29T22:46:11.775Z,24.85
2023-03-29T22:48:39.434Z,22.90
2023-03-29T22:51:06.763Z,21.15
2023-03-29T22:53:34.241Z,19.02
2023-03-29T22:56:01.470Z,20.92
2023-03-29T22:58:31.887Z,25.10
2023-03-29T23:00:59.001Z,24.90
2023-03-29T23:03:26.685Z,20.45
2023-03-29T23:05:56.468Z,22.33
2023-03-29T23:08:25.032Z,24.83
2023-03-29T23:10:52.790Z,21.13
2023-03-29T23:13:24.309Z,24.00
2023-03-29T23:15:53.154Z,25.55
2023-03-29T23:18:21.287Z,22.65
2023-03-29T23:20:50.305Z,23.33
2023-03-29T23:23:19.091Z,22.83
2023-03-29T23:25:47.608Z,23.48
2023-03-29T23:28:16.962Z,23.10
2023-03-29T23:30:44.042Z,25.13
2023-03-29T23:33:11.814Z,26.02
2023-03-29T23:35:38.805Z,24.42
2023-03-29T23:38:06.315Z,27.08
2023-03-29T23:40:33.401Z,23.10
2023-03-29T23:43:00.385Z,30.27
2023-03-29T23:45:30.623Z,26.10
2023-03-29T23:47:57.801Z,26.92
2023-03-29T23:50:28.606Z,28.30
2023-03-29T23:52:55.673Z,29.50
2023-03-29T23:55:22.631Z,25.88
2023-03-29T23:57:49.506Z,26.23
